»·PEaware :: N16GS KLAX-CYXE

N16GS :: KLAX-CYXE

FLIGHT INFORMATION

Flight Status: Arrived
Operator: Privately registered:
United States
More flights under this callsign
Pilot: Chris A. (85)
Aircraft: Unknown
(C25M)
More flights by this aircraft type
Origin: KLAX Los Angeles Intl
United States
Destination: CYXE Saskatoon/Diefenbaker Intl
Canada
More flights between these airports :: More routes between these airports
Route: ORCKA3 LAS KITTN SPRUZ HLE VAANE GTF BEVEL DCT CAREN CAREN2
File this flight plan on PilotEdge
Remarks: PBN / A1B2C2D2 NAV / RNVD1E2A1 SUR / 260B DOF / 190419 REG / N16GS CODE / A198FD RMK / TCAS
Altitude:
(Current/Filed)
41,000ft
Speed:
(Current/Filed)
400kts
Departed: 19-Apr-19 08:21 AM
Arrived: 19-Apr-19 11:42 AM
Distance/Time
Traveled:
1205nm/3:21
Distance/Time
To Go:
Arrived

Flight Plot

Page will automatically refresh every two minutes.

Flight plan parsing failed; only flown route is shown


Map Options




Map Legend


Flown Route
Filed Route
Departure Airport
Arrival Airport
Navaid (VOR, NDB)
Fix

Horizontal Profiles

Position Reports

Time Latitude Longitude Heading Altitude Ground
Speed
19-Apr-19 07:43 33.933686 -118.397089 264 131ft 0kts
19-Apr-19 07:44 33.933686 -118.397089 264 131ft 0kts
19-Apr-19 07:45 33.933686 -118.397089 264 131ft 0kts
19-Apr-19 07:46 33.933686 -118.397089 264 131ft 0kts
19-Apr-19 07:47 33.933686 -118.397089 264 131ft 0kts
19-Apr-19 07:48 33.933686 -118.397089 264 131ft 0kts
19-Apr-19 07:49 33.933686 -118.397089 264 131ft 0kts
19-Apr-19 07:50 33.933686 -118.397089 264 131ft 0kts
19-Apr-19 07:51 33.933686 -118.397089 264 131ft 0kts
19-Apr-19 07:52 33.933686 -118.397089 264 131ft 0kts
19-Apr-19 07:53 33.933686 -118.397089 264 131ft 0kts
19-Apr-19 07:54 33.933686 -118.397089 264 131ft 0kts
19-Apr-19 07:55 33.933686 -118.397089 264 131ft 0kts
19-Apr-19 07:56 33.933686 -118.397089 264 131ft 0kts
19-Apr-19 07:57 33.933686 -118.397089 264 131ft 0kts
19-Apr-19 07:58 33.933686 -118.397089 264 131ft 0kts
19-Apr-19 07:59 33.933686 -118.397089 264 131ft 0kts
19-Apr-19 08:00 33.933686 -118.397089 264 131ft 0kts
19-Apr-19 08:01 33.933686 -118.397089 264 131ft 0kts
19-Apr-19 08:02 33.933686 -118.397089 264 131ft 0kts
19-Apr-19 08:03 33.933686 -118.397089 264 131ft 0kts
19-Apr-19 08:04 33.933686 -118.397089 264 131ft 0kts
19-Apr-19 08:05 33.933686 -118.397089 264 131ft 0kts
19-Apr-19 08:06 33.933686 -118.397089 264 131ft 0kts
19-Apr-19 08:07 33.933686 -118.397089 264 131ft 0kts
19-Apr-19 08:08 33.933686 -118.397089 264 131ft 0kts
19-Apr-19 08:09 33.933686 -118.397089 264 131ft 0kts
19-Apr-19 08:10 33.933686 -118.397089 264 131ft 0kts
19-Apr-19 08:11 33.933686 -118.397089 264 131ft 0kts
19-Apr-19 08:12 33.933686 -118.397089 264 131ft 0kts
19-Apr-19 08:13 33.933715 -118.397522 290 131ft 5kts
19-Apr-19 08:14 33.934698 -118.396686 82 131ft 12kts
19-Apr-19 08:15 33.935252 -118.391249 81 131ft 17kts
19-Apr-19 08:16 33.935789 -118.386026 82 131ft 13kts
19-Apr-19 08:17 33.936029 -118.383770 82 131ft 0kts
19-Apr-19 08:18 33.936123 -118.383162 65 131ft 8kts
19-Apr-19 08:19 33.936611 -118.382890 353 131ft 6kts
19-Apr-19 08:20 33.936990 -118.386441 263 131ft 57kts
19-Apr-19 08:21 33.932144 -118.433628 263 1330ft 206kts
19-Apr-19 08:22 33.913473 -118.511290 248 3894ft 256kts
19-Apr-19 08:23 33.880288 -118.583997 200 6646ft 253kts
19-Apr-19 08:24 33.844912 -118.534796 71 9198ft 246kts
19-Apr-19 08:25 33.897691 -118.471825 44 11526ft 298kts
19-Apr-19 08:26 33.961244 -118.395614 60 13567ft 338kts
19-Apr-19 08:27 34.010347 -118.295891 61 15574ft 351kts
19-Apr-19 08:28 34.065880 -118.197671 58 17585ft 357kts
19-Apr-19 08:29 34.123171 -118.096684 58 19591ft 369kts
19-Apr-19 08:30 34.181597 -117.993028 58 21527ft 381kts
19-Apr-19 08:31 34.242708 -117.884253 58 23334ft 398kts
19-Apr-19 08:32 34.305465 -117.772210 58 25133ft 405kts
19-Apr-19 08:33 34.369051 -117.659557 55 26927ft 405kts
19-Apr-19 08:34 34.435149 -117.549834 55 28723ft 399kts
19-Apr-19 08:35 34.499786 -117.441372 55 30269ft 397kts
19-Apr-19 08:36 34.564209 -117.332825 55 31660ft 396kts
19-Apr-19 08:37 34.627977 -117.225040 54 33047ft 391kts
19-Apr-19 08:38 34.690798 -117.118538 54 34433ft 383kts
19-Apr-19 08:39 34.751912 -117.014624 53 35816ft 371kts
19-Apr-19 08:40 34.810732 -116.914315 53 37195ft 354kts
19-Apr-19 08:41 34.865932 -116.819923 53 38551ft 330kts
19-Apr-19 08:42 34.918861 -116.730134 48 39221ft 324kts
19-Apr-19 08:43 34.979394 -116.649365 43 39722ft 322kts
19-Apr-19 08:44 35.040323 -116.569048 43 40221ft 320kts
19-Apr-19 08:45 35.100531 -116.489518 43 40714ft 316kts
19-Apr-19 08:46 35.159623 -116.411295 43 41113ft 313kts
19-Apr-19 08:47 35.220120 -116.331041 43 41127ft 328kts
19-Apr-19 08:49 35.283562 -116.246651 43 41128ft 345kts
19-Apr-19 08:50 35.349887 -116.158192 43 41132ft 362kts
19-Apr-19 08:51 35.419488 -116.065116 44 41126ft 378kts
19-Apr-19 08:52 35.491831 -115.968099 44 41131ft 392kts
19-Apr-19 08:53 35.566555 -115.867594 44 41133ft 404kts
19-Apr-19 08:54 35.643213 -115.764074 44 41137ft 414kts
19-Apr-19 08:55 35.720608 -115.657592 45 41142ft 421kts
19-Apr-19 08:56 35.799311 -115.549076 45 41148ft 427kts
19-Apr-19 08:57 35.875538 -115.443649 44 41154ft 431kts
19-Apr-19 08:58 35.955571 -115.332606 45 41159ft 434kts
19-Apr-19 08:59 36.036085 -115.220522 45 41145ft 437kts
19-Apr-19 09:00 36.135224 -115.155705 355 41132ft 405kts
19-Apr-19 09:01 36.248150 -115.145824 357 41135ft 408kts
19-Apr-19 09:02 36.361459 -115.135663 357 41139ft 408kts
19-Apr-19 09:03 36.474649 -115.125817 357 41143ft 408kts
19-Apr-19 09:04 36.588430 -115.115949 357 41146ft 409kts
19-Apr-19 09:05 36.701788 -115.106101 357 41147ft 409kts
19-Apr-19 09:06 36.815248 -115.096216 357 41154ft 409kts
19-Apr-19 09:07 36.928874 -115.086288 357 41168ft 408kts
19-Apr-19 09:08 37.042004 -115.076374 357 41172ft 408kts
19-Apr-19 09:08 37.136635 -115.068059 358 41177ft 408kts
19-Apr-19 09:10 37.268860 -115.056404 358 41185ft 408kts
19-Apr-19 09:11 37.382468 -115.046359 358 41187ft 408kts
19-Apr-19 09:12 37.495729 -115.036312 358 41194ft 408kts
19-Apr-19 09:13 37.609133 -115.026223 358 41202ft 408kts
19-Apr-19 09:13 37.703326 -115.017820 358 41209ft 408kts
19-Apr-19 09:15 37.835640 -115.005978 358 41238ft 408kts
19-Apr-19 09:15 37.930223 -114.997489 358 41227ft 408kts
19-Apr-19 09:17 38.062304 -114.985595 358 41235ft 408kts
19-Apr-19 09:17 38.156521 -114.977085 358 41241ft 408kts
19-Apr-19 09:19 38.288465 -114.965128 358 41249ft 408kts
19-Apr-19 09:19 38.383029 -114.958975 355 41256ft 405kts
19-Apr-19 09:20 38.495738 -114.958306 355 41266ft 405kts
19-Apr-19 09:21 38.608160 -114.956663 355 41275ft 405kts
19-Apr-19 09:22 38.721039 -114.954785 355 41282ft 405kts
19-Apr-19 09:23 38.833838 -114.952863 355 41286ft 405kts
19-Apr-19 09:24 38.946512 -114.950928 355 41288ft 405kts
19-Apr-19 09:25 39.059095 -114.948988 355 41290ft 405kts
19-Apr-19 09:26 39.171837 -114.947038 355 41291ft 405kts
19-Apr-19 09:27 39.284478 -114.945084 355 41292ft 405kts
19-Apr-19 09:28 39.397412 -114.943118 355 41292ft 405kts
19-Apr-19 09:29 39.510177 -114.941149 355 41290ft 405kts
19-Apr-19 09:30 39.622788 -114.939177 355 41287ft 405kts
19-Apr-19 09:31 39.735764 -114.937192 356 41281ft 405kts
19-Apr-19 09:32 39.848555 -114.935202 355 41276ft 406kts
19-Apr-19 09:33 39.961517 -114.933204 355 41272ft 406kts
19-Apr-19 09:34 40.074523 -114.931198 356 41268ft 406kts
19-Apr-19 09:35 40.187476 -114.929186 356 41264ft 406kts
19-Apr-19 09:36 40.300012 -114.927175 356 41261ft 406kts
19-Apr-19 09:37 40.412866 -114.925152 356 41258ft 406kts
19-Apr-19 09:38 40.525867 -114.923119 356 41256ft 406kts
19-Apr-19 09:39 40.638866 -114.921079 356 41254ft 406kts
19-Apr-19 09:40 40.751503 -114.902500 6 41249ft 411kts
19-Apr-19 09:41 40.864289 -114.874767 6 41241ft 412kts
19-Apr-19 09:42 40.976676 -114.847056 6 41237ft 412kts
19-Apr-19 09:43 41.089369 -114.819178 6 41235ft 412kts
19-Apr-19 09:44 41.201886 -114.791246 5 41232ft 411kts
19-Apr-19 09:45 41.314672 -114.763151 6 41227ft 411kts
19-Apr-19 09:46 41.427317 -114.734991 6 41222ft 411kts
19-Apr-19 09:47 41.539785 -114.706775 6 41215ft 411kts
19-Apr-19 09:48 41.652263 -114.678457 6 41208ft 411kts
19-Apr-19 09:49 41.764760 -114.650032 6 41201ft 411kts
19-Apr-19 09:50 41.877268 -114.621505 6 41195ft 411kts
19-Apr-19 09:51 41.989678 -114.592898 6 41190ft 411kts
19-Apr-19 09:52 42.101926 -114.564230 6 41186ft 411kts
19-Apr-19 09:53 42.214203 -114.535451 6 41184ft 411kts
19-Apr-19 09:54 42.326629 -114.506529 6 41183ft 411kts
19-Apr-19 09:55 42.438897 -114.477542 6 41183ft 411kts
19-Apr-19 09:56 42.551060 -114.448477 6 41183ft 411kts
19-Apr-19 09:57 42.663425 -114.419252 6 41183ft 411kts
19-Apr-19 09:58 42.775932 -114.389882 6 41183ft 411kts
19-Apr-19 09:59 42.888190 -114.360467 6 41188ft 411kts
19-Apr-19 10:00 43.000645 -114.330891 6 41198ft 411kts
19-Apr-19 10:01 43.113258 -114.301163 6 41215ft 411kts
19-Apr-19 10:02 43.225258 -114.271487 6 41234ft 411kts
19-Apr-19 10:03 43.337227 -114.237155 18 41253ft 418kts
19-Apr-19 10:04 43.440977 -114.162482 23 41259ft 421kts
19-Apr-19 10:05 43.544564 -114.086532 23 41260ft 422kts
19-Apr-19 10:06 43.648185 -114.010271 23 41255ft 422kts
19-Apr-19 10:07 43.752051 -113.933531 23 41246ft 422kts
19-Apr-19 10:08 43.855343 -113.856911 23 41236ft 423kts
19-Apr-19 10:09 43.959286 -113.779501 23 41228ft 423kts
19-Apr-19 10:10 44.062810 -113.702094 23 41223ft 423kts
19-Apr-19 10:11 44.166651 -113.624137 23 41217ft 423kts
19-Apr-19 10:12 44.269978 -113.546253 23 41213ft 423kts
19-Apr-19 10:13 44.373849 -113.467641 23 41212ft 423kts
19-Apr-19 10:14 44.477590 -113.388808 23 41200ft 424kts
19-Apr-19 10:15 44.581132 -113.309809 23 41151ft 426kts
19-Apr-19 10:16 44.685546 -113.229809 23 41144ft 427kts
19-Apr-19 10:17 44.790030 -113.149424 23 41141ft 428kts
19-Apr-19 10:18 44.894623 -113.068618 23 41137ft 429kts
19-Apr-19 10:19 44.999201 -112.987484 23 41133ft 429kts
19-Apr-19 10:20 45.103917 -112.905901 23 41129ft 430kts
19-Apr-19 10:21 45.208566 -112.824024 23 41124ft 430kts
19-Apr-19 10:22 45.314146 -112.743497 18 41122ft 427kts
19-Apr-19 10:23 45.423103 -112.677968 17 41122ft 426kts
19-Apr-19 10:24 45.532282 -112.612297 16 41121ft 426kts
19-Apr-19 10:25 45.641662 -112.546270 16 41121ft 426kts
19-Apr-19 10:26 45.750682 -112.480188 16 41124ft 426kts
19-Apr-19 10:27 45.859997 -112.413644 16 41122ft 426kts
19-Apr-19 10:28 45.969034 -112.346984 16 41121ft 426kts
19-Apr-19 10:29 46.078452 -112.279804 16 41116ft 427kts
19-Apr-19 10:30 46.187860 -112.212338 16 41098ft 427kts
19-Apr-19 10:31 46.297160 -112.144644 16 41065ft 428kts
19-Apr-19 10:32 46.406531 -112.076609 16 41036ft 429kts
19-Apr-19 10:33 46.516326 -112.008009 16 41018ft 429kts
19-Apr-19 10:34 46.625924 -111.939226 16 41013ft 429kts
19-Apr-19 10:35 46.735545 -111.870128 16 41012ft 429kts
19-Apr-19 10:36 46.844911 -111.800883 16 41009ft 429kts
19-Apr-19 10:37 46.954191 -111.731382 16 41001ft 429kts
19-Apr-19 10:38 47.063989 -111.661238 16 40990ft 430kts
19-Apr-19 10:39 47.173339 -111.591065 16 40978ft 430kts
19-Apr-19 10:40 47.283114 -111.520300 16 40969ft 431kts
19-Apr-19 10:41 47.393035 -111.449116 16 40964ft 432kts
19-Apr-19 10:42 47.503024 -111.377195 17 40963ft 432kts
19-Apr-19 10:43 47.612771 -111.304489 17 40980ft 432kts
19-Apr-19 10:44 47.722623 -111.231429 17 40983ft 432kts
19-Apr-19 10:45 47.832374 -111.158105 17 40980ft 432kts
19-Apr-19 10:46 47.942140 -111.084432 17 40975ft 433kts
19-Apr-19 10:47 48.052094 -111.010284 17 40960ft 433kts
19-Apr-19 10:48 48.161942 -110.935860 17 40945ft 433kts
19-Apr-19 10:49 48.271832 -110.861051 17 40929ft 434kts
19-Apr-19 10:50 48.381710 -110.785894 17 40914ft 434kts
19-Apr-19 10:51 48.491403 -110.710507 17 40900ft 434kts
19-Apr-19 10:52 48.601224 -110.634670 17 40869ft 434kts
19-Apr-19 10:53 48.711026 -110.558479 17 40859ft 434kts
19-Apr-19 10:54 48.820470 -110.482169 17 40854ft 434kts
19-Apr-19 10:55 48.930093 -110.405364 17 40850ft 434kts
19-Apr-19 10:56 49.039946 -110.328018 17 40846ft 434kts
19-Apr-19 10:57 49.149350 -110.250616 17 40842ft 434kts
19-Apr-19 10:58 49.258906 -110.172724 17 40838ft 434kts
19-Apr-19 10:59 49.368528 -110.094403 17 40832ft 435kts
19-Apr-19 11:00 49.478254 -110.015446 19 40827ft 437kts
19-Apr-19 11:01 49.564859 -109.876124 44 40826ft 458kts
19-Apr-19 11:02 49.645758 -109.724896 45 40816ft 459kts
19-Apr-19 11:03 49.726578 -109.571652 45 40809ft 459kts
19-Apr-19 11:04 49.806855 -109.418290 45 40809ft 459kts
19-Apr-19 11:05 49.886723 -109.264772 45 40807ft 458kts
19-Apr-19 11:06 49.966562 -109.110399 45 40791ft 458kts
19-Apr-19 11:07 50.046072 -108.955750 45 40783ft 458kts
19-Apr-19 11:08 50.125575 -108.800197 45 40779ft 459kts
19-Apr-19 11:09 50.204768 -108.644323 45 40775ft 459kts
19-Apr-19 11:10 50.283945 -108.487548 45 40771ft 458kts
19-Apr-19 11:11 50.362860 -108.330348 45 40768ft 458kts
19-Apr-19 11:12 50.439673 -108.176422 45 40765ft 458kts
19-Apr-19 11:13 50.517823 -108.019015 45 39385ft 481kts
19-Apr-19 11:14 50.601421 -107.849385 45 37590ft 494kts
19-Apr-19 11:15 50.685272 -107.678118 45 35799ft 497kts
19-Apr-19 11:16 50.770053 -107.503848 45 33997ft 501kts
19-Apr-19 11:17 50.854946 -107.328172 45 32202ft 504kts
19-Apr-19 11:18 50.938888 -107.153186 45 30137ft 494kts
19-Apr-19 11:19 51.010266 -106.973638 75 27539ft 481kts
19-Apr-19 11:20 51.012561 -106.765873 86 24957ft 461kts
19-Apr-19 11:21 51.014400 -106.565810 87 22363ft 447kts
19-Apr-19 11:22 51.015245 -106.372996 87 19764ft 422kts
19-Apr-19 11:23 51.054404 -106.214580 39 17180ft 367kts
19-Apr-19 11:24 51.137873 -106.146172 359 14886ft 325kts
19-Apr-19 11:25 51.220466 -106.169785 328 13421ft 292kts
19-Apr-19 11:26 51.293618 -106.224612 328 12025ft 290kts
19-Apr-19 11:27 51.366885 -106.279111 329 10626ft 291kts
19-Apr-19 11:28 51.438480 -106.332300 329 10096ft 274kts
19-Apr-19 11:30 51.509434 -106.373577 339 10060ft 269kts
19-Apr-19 11:31 51.580782 -106.405548 337 10047ft 265kts
19-Apr-19 11:32 51.652002 -106.438977 339 8945ft 264kts
19-Apr-19 11:33 51.721866 -106.472097 339 7543ft 259kts
19-Apr-19 11:34 51.789494 -106.504315 340 6170ft 255kts
19-Apr-19 11:35 51.849728 -106.533105 340 4918ft 251kts
19-Apr-19 11:36 51.909508 -106.561735 340 4106ft 233kts
19-Apr-19 11:37 51.969144 -106.590419 340 3704ft 224kts
19-Apr-19 11:38 52.026769 -106.620998 337 3637ft 194kts
19-Apr-19 11:39 52.078185 -106.650423 339 3387ft 191kts
19-Apr-19 11:40 52.122976 -106.674071 336 2755ft 146kts
19-Apr-19 11:41 52.158523 -106.694055 336 1803ft 117kts
19-Apr-19 11:42 52.176851 -106.704210 65 1658ft 3kts
19-Apr-19 11:43 52.175621 -106.698234 169 1658ft 16kts
19-Apr-19 11:44 52.172641 -106.695894 98 1658ft 7kts
19-Apr-19 11:45 52.171803 -106.688851 103 1658ft 20kts
19-Apr-19 11:46 52.170802 -106.682972 191 1658ft 5kts
19-Apr-19 11:47 52.170264 -106.683574 279 1658ft 0kts
19-Apr-19 11:48 52.170264 -106.683574 279 1658ft 0kts
19-Apr-19 11:49 52.170264 -106.683574 279 1658ft 0kts
19-Apr-19 11:50 52.170264 -106.683574 279 1658ft 0kts
19-Apr-19 11:51 52.170264 -106.683574 279 1658ft 0kts
19-Apr-19 11:51 52.170264 -106.683574 279 1658ft 0kts
19-Apr-19 11:53 52.170264 -106.683574 279 1658ft 0kts
19-Apr-19 11:54 52.170264 -106.683574 279 1658ft 0kts
19-Apr-19 11:54 52.170264 -106.683574 279 1658ft 0kts
19-Apr-19 11:56 52.170264 -106.683574 279 1658ft 0kts
19-Apr-19 11:56 52.170264 -106.683574 279 1658ft 0kts

Navigation Log

Ident Type
Flight plan parsing failed, navigation log unavailable